| time (UTC) | temp F | wind direction | speed MPH | gust MPH | rain 1hr in | rain 24hr in | rain mn in | humidity % | barometer mb |
| 20260831204818 | 56 | 217 | 1.0 | 3.0 | 0.00 | 0.04 | 0.01 | 89 | 1021.1 |
| 20260831204316 | 56 | 217 | 1.0 | 3.0 | 0.00 | 0.04 | 0.01 | 89 | 1021.1 |
| 20260831203832 | 56 | 217 | 1.0 | 2.0 | 0.00 | 0.04 | 0.01 | 89 | 1021.1 |
| 20260831203350 | 57 | 217 | 1.0 | 2.0 | 0.00 | 0.04 | 0.01 | 89 | 1021.0 |
| 20260831202825 | 57 | 217 | 1.0 | 2.0 | 0.00 | 0.04 | 0.01 | 88 | 1021.0 |
| 20260831202323 | 57 | 217 | 1.0 | 2.0 | 0.00 | 0.04 | 0.01 | 88 | 1021.0 |
| 20260831201829 | 57 | 217 | 0.0 | 1.0 | 0.00 | 0.04 | 0.01 | 88 | 1021.0 |
| 20260831201327 | 57 | 217 | 0.0 | 0.0 | 0.00 | 0.04 | 0.01 | 87 | 1021.0 |
| 20260831200821 | 57 | 217 | 0.0 | 0.0 | 0.00 | 0.04 | 0.01 | 87 | 1020.9 |
| 20260831200320 | 58 | 217 | 0.0 | 0.0 | 0.00 | 0.04 | 0.01 | 86 | 1020.9 |
| 20260831195831 | 58 | 217 | 0.0 | 0.0 | 0.00 | 0.04 | 0.01 | 86 | 1020.8 |
| 20260831195327 | 58 | 217 | 0.0 | 0.0 | 0.00 | 0.04 | 0.01 | 85 | 1020.8 |
| 20260831194822 | 59 | 217 | 0.0 | 0.0 | 0.00 | 0.04 | 0.01 | 85 | 1020.7 |
| 20260831194318 | 59 | 217 | 0.0 | 1.0 | 0.00 | 0.04 | 0.01 | 84 | 1020.7 |
| 20260831193833 | 59 | 217 | 0.0 | 1.0 | 0.00 | 0.04 | 0.01 | 83 | 1020.6 |
| 20260831193331 | 60 | 217 | 0.0 | 2.0 | 0.00 | 0.04 | 0.01 | 83 | 1020.5 |
| 20260831192826 | 60 | 217 | 1.0 | 2.0 | 0.00 | 0.04 | 0.01 | 82 | 1020.5 |
| 20260831192344 | 60 | 217 | 0.0 | 2.0 | 0.00 | 0.04 | 0.01 | 82 | 1020.5 |
| 20260831191816 | 61 | 217 | 1.0 | 2.0 | 0.00 | 0.04 | 0.01 | 81 | 1020.4 |
| 20260831191335 | 61 | 217 | 0.0 | 1.0 | 0.00 | 0.04 | 0.01 | 80 | 1020.3 |
| 20260831190827 | 62 | 217 | 1.0 | 2.0 | 0.00 | 0.04 | 0.01 | 79 | 1020.2 |
| 20260831190325 | 62 | 217 | 0.0 | 6.0 | 0.00 | 0.04 | 0.01 | 78 | 1020.2 |
| 20260831185821 | 63 | 226 | 2.0 | 6.0 | 0.00 | 0.04 | 0.01 | 77 | 1020.2 |
| 20260831185319 | 64 | 217 | 1.0 | 5.0 | 0.00 | 0.04 | 0.01 | 75 | 1020.1 |
| 20260831184834 | 64 | 217 | 0.0 | 5.0 | 0.00 | 0.04 | 0.01 | 74 | 1020.0 |
| 20260831184331 | 64 | 265 | 2.0 | 4.0 | 0.00 | 0.04 | 0.01 | 74 | 1019.9 |
| 20260831183827 | 65 | 287 | 1.0 | 3.0 | 0.00 | 0.04 | 0.01 | 73 | 1020.0 |
| 20260831183325 | 65 | 246 | 1.0 | 7.0 | 0.00 | 0.04 | 0.01 | 71 | 1019.9 |
| 20260831182820 | 66 | 235 | 1.0 | 7.0 | 0.00 | 0.04 | 0.01 | 70 | 1019.8 |
| 20260831182318 | 66 | 284 | 2.0 | 7.0 | 0.00 | 0.04 | 0.01 | 69 | 1019.7 |
| 20260831181831 | 66 | 257 | 4.0 | 7.0 | 0.00 | 0.04 | 0.01 | 69 | 1019.6 |
| 20260831181329 | 67 | 247 | 1.0 | 8.0 | 0.00 | 0.04 | 0.01 | 68 | 1019.5 |
| 20260831180844 | 67 | 244 | 1.0 | 9.0 | 0.00 | 0.04 | 0.01 | 67 | 1019.5 |
| 20260831180341 | 67 | 270 | 4.0 | 9.0 | 0.00 | 0.04 | 0.01 | 66 | 1019.4 |
| 20260831175815 | 68 | 266 | 2.0 | 10.0 | 0.00 | 0.04 | 0.01 | 65 | 1019.4 |
| 20260831175336 | 68 | 273 | 3.0 | 10.0 | 0.00 | 0.04 | 0.01 | 65 | 1019.4 |
| 20260831174828 | 68 | 287 | 3.0 | 12.0 | 0.00 | 0.04 | 0.01 | 64 | 1019.4 |
| 20260831174342 | 68 | 236 | 6.0 | 18.0 | 0.00 | 0.04 | 0.01 | 63 | 1019.4 |
| 20260831173816 | 68 | 249 | 5.0 | 18.0 | 0.00 | 0.04 | 0.01 | 63 | 1019.3 |
| 20260831173333 | 68 | 273 | 3.0 | 12.0 | 0.00 | 0.04 | 0.01 | 63 | 1019.2 |
| 20260831172846 | 69 | 244 | 3.0 | 12.0 | 0.00 | 0.04 | 0.01 | 64 | 1019.2 |
| 20260831172342 | 69 | 232 | 4.0 | 12.0 | 0.00 | 0.04 | 0.01 | 65 | 1019.2 |
| 20260831171817 | 68 | 251 | 4.0 | 10.0 | 0.00 | 0.04 | 0.01 | 66 | 1019.1 |
| 20260831171334 | 69 | 242 | 4.0 | 12.0 | 0.00 | 0.04 | 0.01 | 65 | 1019.2 |
| 20260831170851 | 69 | 248 | 6.0 | 14.0 | 0.00 | 0.04 | 0.01 | 65 | 1019.1 |
| 20260831170323 | 69 | 270 | 7.0 | 15.0 | 0.00 | 0.04 | 0.01 | 65 | 1019.0 |
| 20260831165818 | 69 | 273 | 9.0 | 19.0 | 0.00 | 0.04 | 0.01 | 64 | 1019.0 |
| 20260831165337 | 70 | 258 | 7.0 | 19.0 | 0.00 | 0.04 | 0.01 | 64 | 1019.0 |
| 20260831164831 | 70 | 259 | 8.0 | 17.0 | 0.00 | 0.04 | 0.01 | 64 | 1018.9 |
| 20260831164326 | 70 | 235 | 9.0 | 17.0 | 0.00 | 0.04 | 0.01 | 64 | 1018.9 |
| 20260831163819 | 70 | 286 | 7.0 | 14.0 | 0.00 | 0.04 | 0.01 | 64 | 1018.8 |
| 20260831163336 | 70 | 293 | 8.0 | 13.0 | 0.00 | 0.04 | 0.01 | 64 | 1018.9 |
| 20260831162851 | 70 | 9 | 6.0 | 14.0 | 0.00 | 0.04 | 0.01 | 64 | 1018.8 |
| 20260831162329 | 70 | 246 | 7.0 | 14.0 | 0.00 | 0.04 | 0.01 | 64 | 1018.8 |
| 20260831161823 | 71 | 255 | 4.0 | 10.0 | 0.00 | 0.04 | 0.01 | 64 | 1018.7 |
| 20260831161322 | 70 | 272 | 4.0 | 10.0 | 0.00 | 0.04 | 0.01 | 64 | 1018.6 |
| 20260831160818 | 71 | 232 | 2.0 | 10.0 | 0.00 | 0.04 | 0.01 | 65 | 1018.7 |
| 20260831160316 | 70 | 232 | 4.0 | 10.0 | 0.00 | 0.04 | 0.01 | 66 | 1018.7 |
| 20260831155827 | 70 | 266 | 4.0 | 10.0 | 0.00 | 0.04 | 0.01 | 66 | 1018.7 |
| 20260831155325 | 70 | 274 | 6.0 | 11.0 | 0.00 | 0.04 | 0.01 | 67 | 1018.7 |
| 20260831154821 | 69 | 263 | 5.0 | 11.0 | 0.00 | 0.04 | 0.01 | 68 | 1018.6 |
| 20260831154318 | 69 | 270 | 4.0 | 9.0 | 0.00 | 0.04 | 0.01 | 69 | 1018.6 |
| 20260831153816 | 69 | 318 | 3.0 | 10.0 | 0.00 | 0.04 | 0.01 | 70 | 1018.7 |
| 20260831153336 | 68 | 245 | 4.0 | 10.0 | 0.00 | 0.04 | 0.01 | 71 | 1018.7 |
| 20260831152830 | 68 | 218 | 4.0 | 10.0 | 0.00 | 0.04 | 0.01 | 71 | 1018.8 |
| 20260831152329 | 68 | 301 | 5.0 | 19.0 | 0.00 | 0.04 | 0.01 | 73 | 1018.9 |
| 20260831151825 | 67 | 294 | 6.0 | 19.0 | 0.00 | 0.04 | 0.01 | 71 | 1018.9 |
| 20260831151324 | 68 | 330 | 8.0 | 23.0 | 0.00 | 0.04 | 0.01 | 70 | 1019.0 |
| 20260831150821 | 68 | 267 | 9.0 | 23.0 | 0.00 | 0.04 | 0.01 | 68 | 1018.9 |
| 20260831150340 | 69 | 234 | 13.0 | 24.0 | 0.00 | 0.04 | 0.01 | 66 | 1018.9 |
| 20260831145833 | 71 | 296 | 9.0 | 29.0 | 0.00 | 0.04 | 0.01 | 61 | 1018.8 |
| 20260831145330 | 72 | 245 | 6.0 | 23.0 | 0.00 | 0.04 | 0.01 | 53 | 1018.2 |
| 20260831144825 | 73 | 249 | 7.0 | 16.0 | 0.00 | 0.04 | 0.01 | 53 | 1018.0 |
| 20260831144322 | 73 | 223 | 6.0 | 16.0 | 0.00 | 0.04 | 0.01 | 52 | 1017.9 |
| 20260831143815 | 73 | 164 | 8.0 | 18.0 | 0.00 | 0.04 | 0.01 | 51 | 1017.9 |
| 20260831143332 | 74 | 289 | 7.0 | 21.0 | 0.00 | 0.04 | 0.01 | 51 | 1017.7 |
| 20260831142827 | 74 | 309 | 10.0 | 21.0 | 0.00 | 0.04 | 0.01 | 50 | 1017.6 |
| 20260831142346 | 75 | 331 | 8.0 | 17.0 | 0.00 | 0.04 | 0.01 | 49 | 1017.5 |
| 20260831141819 | 75 | 217 | 4.0 | 13.0 | 0.00 | 0.04 | 0.01 | 52 | 1017.5 |
| 20260831141316 | 74 | 273 | 7.0 | 13.0 | 0.00 | 0.04 | 0.01 | 52 | 1017.6 |
| 20260831140834 | 74 | 147 | 6.0 | 14.0 | 0.00 | 0.04 | 0.01 | 52 | 1017.6 |
| 20260831140333 | 73 | 250 | 5.0 | 17.0 | 0.00 | 0.04 | 0.01 | 53 | 1017.5 |
| 20260831135829 | 73 | 84 | 5.0 | 18.0 | 0.00 | 0.04 | 0.01 | 52 | 1017.6 |
| 20260831135326 | 74 | 248 | 9.0 | 17.0 | 0.00 | 0.04 | 0.01 | 52 | 1017.5 |
| 20260831134822 | 73 | 71 | 8.0 | 17.0 | 0.00 | 0.04 | 0.01 | 52 | 1017.5 |
| 20260831134342 | 74 | 236 | 8.0 | 16.0 | 0.00 | 0.04 | 0.01 | 52 | 1017.4 |
| 20260831133836 | 74 | 116 | 5.0 | 18.0 | 0.00 | 0.04 | 0.01 | 52 | 1017.3 |
| 20260831133354 | 75 | 321 | 5.0 | 22.0 | 0.00 | 0.04 | 0.01 | 52 | 1017.4 |
| 20260831132825 | 76 | 215 | 9.0 | 22.0 | 0.00 | 0.04 | 0.01 | 50 | 1017.3 |
| 20260831132316 | 75 | 238 | 5.0 | 27.0 | 0.00 | 0.04 | 0.01 | 52 | 1017.3 |
| 20260831131855 | 76 | 246 | 8.0 | 27.0 | 0.00 | 0.04 | 0.01 | 51 | 1017.3 |
| 20260831131329 | 75 | 206 | 7.0 | 26.0 | 0.00 | 0.04 | 0.01 | 53 | 1017.2 |
| 20260831130824 | 74 | 226 | 8.0 | 24.0 | 0.00 | 0.04 | 0.01 | 54 | 1017.3 |
| 20260831130343 | 74 | 268 | 9.0 | 25.0 | 0.00 | 0.04 | 0.01 | 53 | 1017.3 |
| 20260831125836 | 74 | 239 | 10.0 | 20.0 | 0.00 | 0.04 | 0.01 | 54 | 1017.3 |
| 20260831125331 | 74 | 219 | 7.0 | 20.0 | 0.00 | 0.04 | 0.01 | 55 | 1017.2 |
| 20260831124826 | 73 | 166 | 6.0 | 20.0 | 0.00 | 0.04 | 0.01 | 55 | 1017.3 |
| 20260831124343 | 73 | 240 | 7.0 | 20.0 | 0.00 | 0.04 | 0.01 | 54 | 1017.2 |
| 20260831123816 | 74 | 242 | 4.0 | 12.0 | 0.00 | 0.04 | 0.01 | 55 | 1017.2 |
| 20260831123313 | 72 | 286 | 5.0 | 14.0 | 0.00 | 0.04 | 0.01 | 58 | 1017.1 |
| 20260831122821 | 71 | 225 | 5.0 | 14.0 | 0.00 | 0.04 | 0.01 | 60 | 1017.1 |
| 20260831122317 | 71 | 174 | 1.0 | 12.0 | 0.00 | 0.04 | 0.01 | 60 | 1017.1 |
| 20260831121831 | 71 | 238 | 2.0 | 13.0 | 0.00 | 0.04 | 0.01 | 62 | 1017.1 |
| 20260831121329 | 70 | 211 | 6.0 | 19.0 | 0.00 | 0.04 | 0.01 | 60 | 1017.1 |
| 20260831120825 | 71 | 255 | 8.0 | 19.0 | 0.00 | 0.04 | 0.01 | 61 | 1017.1 |
| 20260831120322 | 71 | 239 | 9.0 | 21.0 | 0.00 | 0.04 | 0.01 | 61 | 1017.2 |
| 20260831115817 | 71 | 275 | 8.0 | 21.0 | 0.00 | 0.04 | 0.01 | 62 | 1017.1 |
| 20260831115314 | 71 | 188 | 8.0 | 20.0 | 0.00 | 0.04 | 0.01 | 61 | 1017.1 |
| 20260831114831 | 71 | 179 | 6.0 | 16.0 | 0.00 | 0.04 | 0.01 | 62 | 1017.1 |
| 20260831114348 | 71 | 278 | 7.0 | 15.0 | 0.00 | 0.04 | 0.01 | 59 | 1017.0 |
| 20260831113842 | 71 | 216 | 3.0 | 20.0 | 0.00 | 0.04 | 0.01 | 61 | 1017.0 |
| 20260831113320 | 71 | 229 | 5.0 | 20.0 | 0.00 | 0.04 | 0.01 | 62 | 1017.0 |
| 20260831112829 | 70 | 262 | 7.0 | 16.0 | 0.00 | 0.04 | 0.01 | 64 | 1016.9 |
| 20260831112327 | 71 | 166 | 4.0 | 14.0 | 0.00 | 0.04 | 0.01 | 62 | 1017.0 |
| 20260831111843 | 71 | 290 | 3.0 | 17.0 | 0.00 | 0.04 | 0.01 | 62 | 1017.0 |
| 20260831111320 | 71 | 228 | 10.0 | 17.0 | 0.00 | 0.04 | 0.01 | 62 | 1016.9 |
| 20260831110815 | 70 | 288 | 4.0 | 16.0 | 0.00 | 0.04 | 0.01 | 65 | 1017.0 |
| 20260831110314 | 71 | 165 | 7.0 | 20.0 | 0.00 | 0.04 | 0.01 | 62 | 1016.9 |
| 20260831105830 | 71 | 277 | 8.0 | 20.0 | 0.00 | 0.04 | 0.01 | 61 | 1016.8 |
| 20260831105326 | 70 | 220 | 6.0 | 16.0 | 0.00 | 0.04 | 0.01 | 63 | 1016.8 |
| 20260831104822 | 70 | 262 | 5.0 | 22.0 | 0.00 | 0.04 | 0.01 | 64 | 1016.8 |
| 20260831104320 | 71 | 203 | 12.0 | 22.0 | 0.00 | 0.04 | 0.01 | 63 | 1016.8 |
| 20260831103814 | 71 | 285 | 6.0 | 16.0 | 0.00 | 0.04 | 0.01 | 61 | 1016.8 |
| 20260831103332 | 72 | 145 | 6.0 | 18.0 | 0.00 | 0.04 | 0.01 | 63 | 1016.7 |
| 20260831102826 | 70 | 225 | 8.0 | 22.0 | 0.00 | 0.04 | 0.01 | 65 | 1016.7 |
| 20260831102325 | 70 | 183 | 12.0 | 22.0 | 0.00 | 0.04 | 0.01 | 65 | 1016.7 |
| 20260831101820 | 70 | 213 | 8.0 | 21.0 | 0.00 | 0.04 | 0.01 | 68 | 1016.8 |
| 20260831101318 | 70 | 238 | 8.0 | 22.0 | 0.00 | 0.04 | 0.01 | 67 | 1016.7 |
| 20260831100815 | 71 | 184 | 6.0 | 22.0 | 0.00 | 0.04 | 0.01 | 67 | 1016.6 |
| 20260831100333 | 70 | 227 | 9.0 | 21.0 | 0.00 | 0.04 | 0.01 | 66 | 1016.7 |
| 20260831095827 | 71 | 113 | 6.0 | 22.0 | 0.00 | 0.04 | 0.01 | 67 | 1016.7 |
| 20260831095323 | 69 | 207 | 10.0 | 22.0 | 0.00 | 0.04 | 0.01 | 69 | 1016.6 |
| 20260831094819 | 68 | 242 | 9.0 | 21.0 | 0.00 | 0.04 | 0.01 | 70 | 1016.7 |
| 20260831094319 | 69 | 229 | 6.0 | 16.0 | 0.00 | 0.04 | 0.01 | 69 | 1016.6 |
| 20260831093814 | 69 | 275 | 6.0 | 16.0 | 0.00 | 0.04 | 0.01 | 71 | 1016.6 |
| 20260831093332 | 68 | 194 | 6.0 | 14.0 | 0.00 | 0.04 | 0.01 | 72 | 1016.6 |
| 20260831092825 | 67 | 175 | 4.0 | 18.0 | 0.00 | 0.04 | 0.01 | 75 | 1016.6 |
| 20260831092342 | 67 | 161 | 9.0 | 22.0 | 0.00 | 0.04 | 0.01 | 74 | 1016.5 |
| 20260831091818 | 67 | 182 | 6.0 | 22.0 | 0.00 | 0.04 | 0.01 | 73 | 1016.6 |
| 20260831091335 | 68 | 207 | 5.0 | 14.0 | 0.00 | 0.04 | 0.01 | 73 | 1016.6 |
| 20260831090830 | 68 | 324 | 7.0 | 14.0 | 0.00 | 0.04 | 0.01 | 72 | 1016.5 |
| 20260831090346 | 67 | 236 | 9.0 | 17.0 | 0.00 | 0.04 | 0.01 | 74 | 1016.5 |
| 20260831085821 | 67 | 239 | 6.0 | 17.0 | 0.00 | 0.04 | 0.01 | 74 | 1016.6 |
| 20260831085339 | 66 | 202 | 5.0 | 21.0 | 0.00 | 0.04 | 0.01 | 76 | 1016.5 |
| 20260831084833 | 66 | 225 | 6.0 | 22.0 | 0.00 | 0.04 | 0.01 | 75 | 1016.4 |
| 20260831084350 | 66 | 188 | 4.0 | 22.0 | 0.00 | 0.04 | 0.01 | 75 | 1016.4 |
| 20260831083823 | 67 | 244 | 7.0 | 27.0 | 0.00 | 0.04 | 0.01 | 74 | 1016.4 |
| 20260831083321 | 66 | 189 | 8.0 | 27.0 | 0.00 | 0.04 | 0.01 | 75 | 1016.3 |
| 20260831082815 | 66 | 282 | 8.0 | 16.0 | 0.00 | 0.04 | 0.01 | 75 | 1016.3 |
| 20260831082313 | 66 | 240 | 7.0 | 15.0 | 0.00 | 0.04 | 0.01 | 75 | 1016.4 |
| 20260831081829 | 66 | 188 | 4.0 | 21.0 | 0.00 | 0.04 | 0.01 | 76 | 1016.4 |
| 20260831081327 | 65 | 215 | 10.0 | 18.0 | 0.00 | 0.04 | 0.01 | 77 | 1016.4 |
| 20260831080821 | 65 | 205 | 4.0 | 14.0 | 0.00 | 0.04 | 0.01 | 79 | 1016.4 |
| 20260831080318 | 64 | 217 | 6.0 | 16.0 | 0.00 | 0.04 | 0.01 | 80 | 1016.4 |
| 20260831075815 | 64 | 168 | 7.0 | 17.0 | 0.00 | 0.04 | 0.01 | 80 | 1016.4 |
| 20260831075314 | 65 | 171 | 7.0 | 14.0 | 0.00 | 0.04 | 0.01 | 80 | 1016.4 |
| 20260831074829 | 65 | 179 | 5.0 | 16.0 | 0.00 | 0.04 | 0.01 | 80 | 1016.3 |
| 20260831074326 | 64 | 220 | 6.0 | 16.0 | 0.00 | 0.04 | 0.01 | 81 | 1016.3 |
| 20260831073821 | 64 | 192 | 8.0 | 15.0 | 0.00 | 0.04 | 0.01 | 82 | 1016.3 |
| 20260831073321 | 64 | 182 | 7.0 | 15.0 | 0.00 | 0.04 | 0.01 | 82 | 1016.3 |
| 20260831072836 | 64 | 223 | 7.0 | 14.0 | 0.00 | 0.04 | 0.01 | 82 | 1016.2 |
| 20260831072332 | 64 | 186 | 8.0 | 18.0 | 0.00 | 0.04 | 0.01 | 82 | 1016.2 |
| 20260831071827 | 64 | 178 | 8.0 | 24.0 | 0.00 | 0.04 | 0.01 | 82 | 1016.2 |
| 20260831071323 | 64 | 202 | 9.0 | 24.0 | 0.00 | 0.04 | 0.01 | 82 | 1016.1 |
| 20260831070839 | 64 | 329 | 8.0 | 18.0 | 0.00 | 0.04 | 0.01 | 82 | 1016.0 |
| 20260831070338 | 63 | 190 | 10.0 | 17.0 | 0.00 | 0.04 | 0.01 | 82 | 1016.0 |
| 20260831065853 | 64 | 205 | 6.0 | 15.0 | 0.00 | 0.04 | 0.01 | 82 | 1016.0 |
| 20260831065351 | 64 | 224 | 9.0 | 18.0 | 0.00 | 0.04 | 0.01 | 82 | 1016.1 |
| 20260831064824 | 63 | 206 | 7.0 | 13.0 | 0.00 | 0.04 | 0.01 | 82 | 1016.0 |
| 20260831064321 | 63 | 197 | 8.0 | 16.0 | 0.00 | 0.04 | 0.01 | 83 | 1015.9 |
| 20260831063818 | 63 | 197 | 10.0 | 16.0 | 0.00 | 0.04 | 0.01 | 83 | 1015.9 |
| 20260831063336 | 63 | 175 | 7.0 | 13.0 | 0.00 | 0.04 | 0.01 | 83 | 1015.9 |
| 20260831062830 | 63 | 197 | 5.0 | 11.0 | 0.00 | 0.04 | 0.01 | 83 | 1015.9 |
| 20260831062325 | 63 | 200 | 7.0 | 14.0 | 0.00 | 0.04 | 0.01 | 84 | 1015.8 |
| 20260831061823 | 63 | 196 | 7.0 | 15.0 | 0.00 | 0.04 | 0.01 | 84 | 1015.8 |
| 20260831061320 | 63 | 51 | 5.0 | 16.0 | 0.00 | 0.04 | 0.01 | 84 | 1015.8 |
| 20260831060816 | 62 | 200 | 8.0 | 16.0 | 0.00 | 0.04 | 0.01 | 84 | 1015.8 |
| 20260831060332 | 62 | 234 | 8.0 | 14.0 | 0.00 | 0.04 | 0.01 | 84 | 1015.8 |
| 20260831055827 | 62 | 225 | 6.0 | 13.0 | 0.00 | 0.04 | 0.01 | 84 | 1015.9 |
| 20260831055324 | 62 | 185 | 7.0 | 17.0 | 0.00 | 0.04 | 0.01 | 84 | 1015.8 |
| 20260831054820 | 62 | 208 | 8.0 | 17.0 | 0.00 | 0.04 | 0.01 | 84 | 1015.8 |
| 20260831054317 | 62 | 234 | 7.0 | 13.0 | 0.00 | 0.04 | 0.01 | 84 | 1015.7 |
| 20260831053827 | 62 | 215 | 9.0 | 14.0 | 0.00 | 0.04 | 0.01 | 84 | 1015.8 |
| 20260831053325 | 62 | 208 | 6.0 | 14.0 | 0.00 | 0.04 | 0.01 | 84 | 1015.6 |
| 20260831052841 | 62 | 201 | 5.0 | 11.0 | 0.00 | 0.04 | 0.01 | 84 | 1015.6 |
| 20260831052317 | 62 | 185 | 5.0 | 18.0 | 0.00 | 0.04 | 0.01 | 84 | 1015.6 |
| 20260831051832 | 62 | 194 | 9.0 | 18.0 | 0.00 | 0.04 | 0.01 | 84 | 1015.6 |
| 20260831051329 | 62 | 213 | 6.0 | 14.0 | 0.00 | 0.04 | 0.01 | 84 | 1015.6 |
| 20260831050826 | 62 | 184 | 3.0 | 14.0 | 0.00 | 0.04 | 0.01 | 84 | 1015.5 |
| 20260831050323 | 62 | 197 | 6.0 | 17.0 | 0.00 | 0.04 | 0.01 | 85 | 1015.5 |
| 20260831045818 | 62 | 155 | 3.0 | 16.0 | 0.00 | 0.04 | 0.01 | 85 | 1015.6 |
| 20260831045314 | 62 | 194 | 5.0 | 16.0 | 0.00 | 0.04 | 0.01 | 85 | 1015.6 |
| 20260831044830 | 62 | 221 | 5.0 | 16.0 | 0.00 | 0.04 | 0.01 | 85 | 1015.5 |
| 20260831044327 | 62 | 218 | 6.0 | 16.0 | 0.00 | 0.04 | 0.01 | 85 | 1015.5 |
| 20260831043823 | 62 | 238 | 5.0 | 16.0 | 0.00 | 0.04 | 0.01 | 85 | 1015.5 |
| 20260831043322 | 62 | 208 | 3.0 | 11.0 | 0.00 | 0.04 | 0.01 | 85 | 1015.5 |
| 20260831042818 | 62 | 223 | 5.0 | 15.0 | 0.00 | 0.04 | 0.01 | 85 | 1015.4 |
| 20260831042316 | 62 | 219 | 7.0 | 17.0 | 0.00 | 0.04 | 0.01 | 85 | 1015.3 |
| 20260831041832 | 62 | 211 | 6.0 | 17.0 | 0.00 | 0.04 | 0.01 | 85 | 1015.3 |
| 20260831041351 | 62 | 271 | 9.0 | 16.0 | 0.00 | 0.04 | 0.01 | 85 | 1015.2 |
| 20260831040824 | 62 | 192 | 11.0 | 16.0 | 0.00 | 0.04 | 0.01 | 86 | 1015.2 |
| 20260831040343 | 62 | 171 | 9.0 | 16.0 | 0.00 | 0.04 | 0.01 | 86 | 1015.4 |
| 20260831035818 | 62 | 251 | 6.0 | 18.0 | 0.00 | 0.04 | 0.01 | 86 | 1015.4 |
| 20260831035316 | 62 | 195 | 9.0 | 18.0 | 0.00 | 0.04 | 0.01 | 86 | 1015.3 |
| 20260831034832 | 62 | 198 | 4.0 | 15.0 | 0.00 | 0.04 | 0.01 | 86 | 1015.4 |
| 20260831034330 | 62 | 202 | 9.0 | 16.0 | 0.00 | 0.04 | 0.01 | 86 | 1015.4 |
| 20260831033826 | 62 | 231 | 6.0 | 16.0 | 0.00 | 0.04 | 0.01 | 86 | 1015.5 |
| 20260831033323 | 62 | 200 | 5.0 | 12.0 | 0.00 | 0.04 | 0.01 | 86 | 1015.5 |
| 20260831032818 | 62 | 185 | 6.0 | 14.0 | 0.00 | 0.04 | 0.01 | 86 | 1015.4 |
| 20260831032314 | 62 | 206 | 8.0 | 14.0 | 0.00 | 0.04 | 0.01 | 86 | 1015.4 |
| 20260831031829 | 62 | 196 | 4.0 | 14.0 | 0.00 | 0.04 | 0.01 | 86 | 1015.3 |
| 20260831031326 | 62 | 167 | 6.0 | 14.0 | 0.00 | 0.04 | 0.01 | 86 | 1015.4 |
| 20260831030822 | 62 | 194 | 7.0 | 13.0 | 0.00 | 0.04 | 0.01 | 87 | 1015.4 |
| 20260831030340 | 62 | 208 | 7.0 | 13.0 | 0.00 | 0.04 | 0.01 | 87 | 1015.4 |
| 20260831025855 | 62 | 182 | 7.0 | 12.0 | 0.00 | 0.04 | 0.01 | 87 | 1015.3 |
| 20260831025330 | 62 | 168 | 7.0 | 19.0 | 0.00 | 0.04 | 0.01 | 87 | 1015.4 |
| 20260831024827 | 61 | 207 | 6.0 | 19.0 | 0.00 | 0.04 | 0.01 | 88 | 1015.4 |
| 20260831024325 | 61 | 203 | 6.0 | 11.0 | 0.04 | 0.04 | 0.01 | 88 | 1015.4 |
| 20260831023819 | 61 | 180 | 5.0 | 10.0 | 0.04 | 0.04 | 0.01 | 88 | 1015.3 |
| 20260831023339 | 61 | 187 | 5.0 | 12.0 | 0.04 | 0.04 | 0.01 | 88 | 1015.3 |
| 20260831022815 | 61 | 155 | 3.0 | 12.0 | 0.04 | 0.04 | 0.01 | 88 | 1015.2 |
| 20260831022331 | 61 | 178 | 7.0 | 11.0 | 0.04 | 0.04 | 0.01 | 88 | 1015.3 |
| 20260831021847 | 61 | 210 | 5.0 | 11.0 | 0.04 | 0.04 | 0.01 | 88 | 1015.3 |
| 20260831021345 | 61 | 196 | 5.0 | 10.0 | 0.04 | 0.04 | 0.01 | 88 | 1015.2 |
| 20260831020818 | 61 | 207 | 2.0 | 13.0 | 0.04 | 0.04 | 0.01 | 88 | 1015.2 |
| 20260831020334 | 61 | 173 | 3.0 | 13.0 | 0.04 | 0.04 | 0.01 | 88 | 1015.2 |
| 20260831015854 | 61 | 206 | 5.0 | 13.0 | 0.04 | 0.04 | 0.01 | 89 | 1015.2 |
| 20260831015332 | 61 | 207 | 8.0 | 13.0 | 0.04 | 0.04 | 0.01 | 89 | 1015.2 |
| 20260831014827 | 61 | 262 | 3.0 | 11.0 | 0.04 | 0.04 | 0.01 | 89 | 1015.2 |
| 20260831014347 | 61 | 252 | 5.0 | 10.0 | 0.00 | 0.00 | 0.00 | 89 | 1015.2 |
| 20260831013822 | 61 | 200 | 6.0 | 11.0 | 0.00 | 0.00 | 0.00 | 89 | 1015.2 |
| 20260831013317 | 60 | 194 | 4.0 | 8.0 | 0.00 | 0.00 | 0.00 | 89 | 1015.2 |
| 20260831012834 | 60 | 188 | 2.0 | 6.0 | 0.00 | 0.00 | 0.00 | 89 | 1015.3 |
| 20260831012336 | 60 | 236 | 3.0 | 7.0 | 0.00 | 0.00 | 0.00 | 89 | 1015.3 |
| 20260831011830 | 61 | 190 | 5.0 | 7.0 | 0.00 | 0.00 | 0.00 | 89 | 1015.2 |
| 20260831011329 | 61 | 204 | 2.0 | 9.0 | 0.00 | 0.00 | 0.00 | 88 | 1015.2 |
| 20260831010843 | 61 | 188 | 5.0 | 9.0 | 0.00 | 0.00 | 0.00 | 88 | 1015.3 |
| 20260831010323 | 61 | 188 | 3.0 | 9.0 | 0.00 | 0.00 | 0.00 | 88 | 1015.2 |
| 20260831005820 | 61 | 207 | 4.0 | 7.0 | 0.00 | 0.00 | 0.00 | 88 | 1015.1 |
| 20260831005319 | 61 | 191 | 3.0 | 7.0 | 0.00 | 0.00 | 0.00 | 88 | 1015.1 |
| 20260831004817 | 61 | 237 | 4.0 | 9.0 | 0.00 | 0.00 | 0.00 | 88 | 1015.0 |
| 20260831004314 | 61 | 254 | 3.0 | 9.0 | 0.00 | 0.00 | 0.00 | 88 | 1015.0 |
| 20260831003831 | 61 | 221 | 4.0 | 10.0 | 0.00 | 0.00 | 0.00 | 88 | 1014.9 |
| 20260831003349 | 61 | 206 | 5.0 | 14.0 | 0.00 | 0.00 | 0.00 | 88 | 1014.9 |
| 20260831002821 | 61 | 184 | 6.0 | 14.0 | 0.00 | 0.00 | 0.00 | 88 | 1014.9 |
| 20260831002339 | 61 | 209 | 4.0 | 12.0 | 0.00 | 0.00 | 0.00 | 88 | 1014.9 |
| 20260831001815 | 62 | 195 | 6.0 | 11.0 | 0.00 | 0.00 | 0.00 | 87 | 1014.9 |
| 20260831001335 | 62 | 196 | 5.0 | 10.0 | 0.00 | 0.00 | 0.00 | 87 | 1014.9 |
| 20260831000831 | 62 | 204 | 4.0 | 11.0 | 0.00 | 0.00 | 0.00 | 87 | 1014.9 |
| 20260831000328 | 62 | 231 | 4.0 | 11.0 | 0.00 | 0.00 | 0.00 | 87 | 1014.9 |
| 20260830235825 | 62 | 201 | 2.0 | 11.0 | 0.00 | 0.00 | 0.00 | 87 | 1014.9 |
| 20260830235323 | 62 | 209 | 5.0 | 11.0 | 0.00 | 0.00 | 0.00 | 87 | 1014.8 |
| 20260830234837 | 62 | 159 | 4.0 | 11.0 | 0.00 | 0.00 | 0.00 | 87 | 1014.8 |
| 20260830234355 | 62 | 223 | 5.0 | 12.0 | 0.00 | 0.00 | 0.00 | 87 | 1014.7 |
| 20260830233830 | 62 | 182 | 2.0 | 10.0 | 0.00 | 0.00 | 0.00 | 86 | 1014.8 |
| 20260830233328 | 62 | 254 | 3.0 | 9.0 | 0.00 | 0.00 | 0.00 | 86 | 1014.8 |
| 20260830232825 | 63 | 220 | 4.0 | 11.0 | 0.00 | 0.00 | 0.00 | 86 | 1014.8 |
| 20260830232323 | 63 | 227 | 3.0 | 11.0 | 0.00 | 0.00 | 0.00 | 86 | 1014.8 |
| 20260830231821 | 63 | 219 | 3.0 | 10.0 | 0.00 | 0.00 | 0.00 | 86 | 1014.7 |
| 20260830231320 | 63 | 198 | 3.0 | 11.0 | 0.00 | 0.00 | 0.00 | 86 | 1014.7 |
| 20260830230815 | 63 | 157 | 2.0 | 11.0 | 0.00 | 0.00 | 0.00 | 86 | 1014.7 |
| 20260830230314 | 63 | 241 | 5.0 | 11.0 | 0.00 | 0.00 | 0.00 | 86 | 1014.7 |
| 20260830225830 | 63 | 218 | 3.0 | 12.0 | 0.00 | 0.00 | 0.00 | 86 | 1014.7 |
| 20260830225329 | 63 | 244 | 6.0 | 12.0 | 0.00 | 0.00 | 0.00 | 86 | 1014.7 |
| 20260830224825 | 63 | 246 | 6.0 | 12.0 | 0.00 | 0.00 | 0.00 | 86 | 1014.6 |
| 20260830224324 | 63 | 202 | 5.0 | 12.0 | 0.00 | 0.00 | 0.00 | 86 | 1014.5 |
| 20260830223821 | 63 | 187 | 5.0 | 12.0 | 0.00 | 0.00 | 0.00 | 86 | 1014.6 |
| 20260830223341 | 64 | 224 | 5.0 | 10.0 | 0.00 | 0.00 | 0.00 | 86 | 1014.6 |
| 20260830222816 | 64 | 234 | 4.0 | 12.0 | 0.00 | 0.00 | 0.00 | 86 | 1014.5 |
| 20260830222314 | 64 | 242 | 6.0 | 12.0 | 0.00 | 0.00 | 0.00 | 86 | 1014.4 |
| 20260830221830 | 64 | 204 | 5.0 | 12.0 | 0.00 | 0.00 | 0.00 | 86 | 1014.4 |
| 20260830221330 | 64 | 224 | 5.0 | 10.0 | 0.00 | 0.00 | 0.00 | 86 | 1014.4 |
| 20260830220824 | 64 | 249 | 4.0 | 9.0 | 0.00 | 0.00 | 0.00 | 86 | 1014.4 |
| 20260830220321 | 64 | 209 | 5.0 | 9.0 | 0.00 | 0.00 | 0.00 | 86 | 1014.3 |
| 20260830215839 | 64 | 172 | 5.0 | 9.0 | 0.00 | 0.00 | 0.00 | 85 | 1014.3 |
| 20260830215337 | 64 | 223 | 4.0 | 11.0 | 0.00 | 0.00 | 0.00 | 85 | 1014.3 |
| 20260830214831 | 65 | 205 | 6.0 | 11.0 | 0.00 | 0.00 | 0.00 | 85 | 1014.2 |
| 20260830214331 | 65 | 182 | 5.0 | 13.0 | 0.00 | 0.00 | 0.00 | 85 | 1014.1 |
| 20260830213829 | 65 | 211 | 7.0 | 13.0 | 0.00 | 0.00 | 0.00 | 84 | 1014.1 |
| 20260830213328 | 65 | 214 | 7.0 | 15.0 | 0.00 | 0.00 | 0.00 | 84 | 1014.1 |
| 20260830212845 | 65 | 211 | 6.0 | 16.0 | 0.00 | 0.00 | 0.00 | 84 | 1014.2 |
| 20260830212325 | 65 | 206 | 10.0 | 13.0 | 0.00 | 0.00 | 0.00 | 85 | 1014.1 |
| 20260830211822 | 65 | 196 | 7.0 | 15.0 | 0.00 | 0.00 | 0.00 | 85 | 1014.1 |
| 20260830211320 | 65 | 177 | 5.0 | 13.0 | 0.00 | 0.00 | 0.00 | 85 | 1014.1 |
| 20260830210815 | 65 | 213 | 7.0 | 13.0 | 0.00 | 0.00 | 0.00 | 85 | 1014.1 |
| 20260830210335 | 66 | 225 | 7.0 | 11.0 | 0.00 | 0.00 | 0.00 | 85 | 1014.0 |
| 20260830205847 | 66 | 193 | 4.0 | 10.0 | 0.00 | 0.00 | 0.00 | 84 | 1014.1 |
| 20260830205326 | 66 | 209 | 6.0 | 15.0 | 0.00 | 0.00 | 0.00 | 84 | 1014.0 |